Time;durP1;ratioP1;P1;durP2;ratioP2;P2;SDS_P1;SDS_P2;PMS_P1;PMS_P2;Temp;Humidity;BMP_temperature;BMP_pressure;BME280_temperature;BME280_humidity;BME280_pressure;Samples;Min_cycle;Max_cycle;Signal;HPM_P1;HPM_P2
2023/04/07 00:00:57;;;;;;;;;;;4.40;64.80;;;;;;4103954;28;19929;-83
2023/04/07 00:02:58;;;;;;;;;;;4.40;64.80;;;;;;4108917;28;19922;-83
2023/04/07 00:04:59;;;;;;;;;;;4.40;65.10;;;;;;4098569;28;19921;-83
2023/04/07 00:06:59;;;;;;;;;;;4.30;66.10;;;;;;4065958;29;20390;-82
2023/04/07 00:09:00;;;;;;;;;;;4.30;65.20;;;;;;4103982;28;19957;-83
2023/04/07 00:11:01;;;;;;;;;;;4.30;65.10;;;;;;4071067;29;19918;-82
2023/04/07 00:13:02;;;;;;;;;;;4.40;65.20;;;;;;4085547;29;19937;-83
2023/04/07 00:15:02;;;;;;;;;;;4.30;65.50;;;;;;4102279;28;19910;-83
2023/04/07 00:17:03;;;;;;;;;;;4.30;65.50;;;;;;4102555;28;20682;-83
2023/04/07 00:19:04;;;;;;;;;;;4.30;65.60;;;;;;4101479;28;20456;-84
2023/04/07 00:21:27;;;;;;;;;;;4.30;66.00;;;;;;4097219;28;19921;-83
2023/04/07 00:23:48;;;;;;;;;;;4.30;66.10;;;;;;4087042;29;19926;-83
2023/04/07 00:26:08;;;;;;;;;;;4.30;66.40;;;;;;4098476;28;19982;-83
2023/04/07 00:28:29;;;;;;;;;;;4.30;66.50;;;;;;4100872;28;19965;-81
2023/04/07 00:30:49;;;;;;;;;;;4.30;66.20;;;;;;4090620;28;19943;-84
2023/04/07 00:33:10;;;;;;;;;;;4.30;66.00;;;;;;4103484;28;19918;-83
2023/04/07 00:35:30;;;;;;;;;;;4.30;66.00;;;;;;4101878;28;19914;-83
2023/04/07 00:37:51;;;;;;;;;;;4.30;65.90;;;;;;4101371;28;19914;-82
2023/04/07 00:40:11;;;;;;;;;;;4.30;66.20;;;;;;4098509;28;19918;-84
2023/04/07 00:42:32;;;;;;;;;;;4.30;65.90;;;;;;4088730;28;19922;-83
2023/04/07 00:44:52;;;;;;;;;;;4.30;65.80;;;;;;4100449;28;19921;-83
2023/04/07 00:47:07;;;;;;;;;;;4.30;66.10;;;;;;4096906;28;19926;-83
2023/04/07 00:49:08;;;;;;;;;;;4.30;66.00;;;;;;4084218;29;20146;-83
2023/04/07 00:51:08;;;;;;;;;;;4.30;65.90;;;;;;4098488;28;19910;-83
2023/04/07 00:53:09;;;;;;;;;;;4.30;65.90;;;;;;4088955;28;20365;-83
2023/04/07 00:55:10;;;;;;;;;;;4.30;66.00;;;;;;4076115;29;19919;-84
2023/04/07 00:57:10;;;;;;;;;;;4.30;66.20;;;;;;4099361;28;19910;-83
2023/04/07 00:59:11;;;;;;;;;;;4.30;66.10;;;;;;4084617;29;19911;-81
2023/04/07 01:01:14;;;;;;;;;;;4.30;66.30;;;;;;4096558;28;20052;-83
2023/04/07 01:03:19;;;;;;;;;;;4.20;66.10;;;;;;4100562;28;19911;-82
2023/04/07 01:05:22;;;;;;;;;;;4.30;66.00;;;;;;4085532;29;20342;-82
2023/04/07 01:07:27;;;;;;;;;;;4.30;66.00;;;;;;4079607;29;19918;-82
2023/04/07 01:09:33;;;;;;;;;;;4.30;66.00;;;;;;4065310;29;20308;-83
2023/04/07 01:11:43;;;;;;;;;;;4.20;66.00;;;;;;4081849;29;19970;-84
2023/04/07 01:13:50;;;;;;;;;;;4.20;66.10;;;;;;4097105;28;19954;-83
2023/04/07 01:15:55;;;;;;;;;;;4.20;66.00;;;;;;4097721;28;19925;-83
2023/04/07 01:18:05;;;;;;;;;;;4.20;65.90;;;;;;4100133;28;20013;-83
2023/04/07 01:20:09;;;;;;;;;;;4.20;65.90;;;;;;4080858;29;19911;-83
2023/04/07 01:22:14;;;;;;;;;;;4.20;65.90;;;;;;4083904;29;19930;-83
2023/04/07 01:24:49;;;;;;;;;;;4.20;66.00;;;;;;4096642;28;20527;-84
2023/04/07 01:26:55;;;;;;;;;;;4.20;66.00;;;;;;4081419;29;19919;-83
2023/04/07 01:29:15;;;;;;;;;;;4.20;65.90;;;;;;4098372;28;19965;-83
2023/04/07 01:31:38;;;;;;;;;;;4.20;65.80;;;;;;4099193;28;19926;-83
2023/04/07 01:33:59;;;;;;;;;;;4.10;65.70;;;;;;4099799;28;19962;-83
2023/04/07 01:36:21;;;;;;;;;;;4.10;65.80;;;;;;4099549;28;19919;-83
2023/04/07 01:38:40;;;;;;;;;;;4.10;65.80;;;;;;4071039;29;19919;-85
2023/04/07 01:41:02;;;;;;;;;;;4.10;66.00;;;;;;4096381;28;19925;-83
2023/04/07 01:43:23;;;;;;;;;;;4.10;66.00;;;;;;4098363;28;19997;-84
2023/04/07 01:45:44;;;;;;;;;;;4.10;66.00;;;;;;4079774;29;19957;-82
2023/04/07 01:48:05;;;;;;;;;;;4.10;65.80;;;;;;4098356;28;19911;-83
2023/04/07 01:50:27;;;;;;;;;;;4.00;65.80;;;;;;4088294;28;19923;-83
2023/04/07 01:52:48;;;;;;;;;;;4.00;65.80;;;;;;4090703;28;19919;-82
2023/04/07 01:55:08;;;;;;;;;;;4.00;65.70;;;;;;4081558;28;19991;-82
2023/04/07 01:57:29;;;;;;;;;;;4.10;65.90;;;;;;4082348;28;19914;-84
2023/04/07 01:59:50;;;;;;;;;;;4.00;65.70;;;;;;4085624;29;19970;-83
2023/04/07 02:02:10;;;;;;;;;;;4.00;65.80;;;;;;4095210;28;19969;-83
2023/04/07 02:04:36;;;;;;;;;;;4.00;65.80;;;;;;4098934;28;19926;-84
2023/04/07 02:07:16;;;;;;;;;;;4.00;65.70;;;;;;4095616;28;19914;-83
2023/04/07 02:09:38;;;;;;;;;;;4.00;65.80;;;;;;4097167;28;19917;-83
2023/04/07 02:11:39;;;;;;;;;;;4.00;65.80;;;;;;4097060;28;19964;-83
2023/04/07 02:13:41;;;;;;;;;;;3.90;65.80;;;;;;4100947;28;20304;-83
2023/04/07 02:15:43;;;;;;;;;;;3.90;65.80;;;;;;4070175;29;19925;-83
2023/04/07 02:17:46;;;;;;;;;;;3.90;65.80;;;;;;4082877;29;20004;-82
2023/04/07 02:19:48;;;;;;;;;;;3.90;66.30;;;;;;4081464;29;20158;-82
2023/04/07 02:21:50;;;;;;;;;;;3.90;66.20;;;;;;4097339;28;19918;-83
2023/04/07 02:23:50;;;;;;;;;;;3.90;66.20;;;;;;4095980;28;20144;-82
2023/04/07 02:25:54;;;;;;;;;;;3.90;66.20;;;;;;4084403;29;19926;-83
2023/04/07 02:27:56;;;;;;;;;;;3.80;66.10;;;;;;4097720;28;20385;-81
2023/04/07 02:29:57;;;;;;;;;;;3.90;66.20;;;;;;4099282;28;19920;-82
2023/04/07 02:31:57;;;;;;;;;;;3.90;66.10;;;;;;4101067;28;20404;-81
2023/04/07 02:33:58;;;;;;;;;;;3.90;66.20;;;;;;4084786;29;20724;-83
2023/04/07 02:35:59;;;;;;;;;;;3.80;66.30;;;;;;4096902;28;19933;-83
2023/04/07 02:37:59;;;;;;;;;;;3.80;66.30;;;;;;4078516;29;19914;-83
2023/04/07 02:40:00;;;;;;;;;;;3.80;66.40;;;;;;4093861;28;20472;-83
2023/04/07 02:42:00;;;;;;;;;;;3.80;66.80;;;;;;4083393;29;19937;-83
2023/04/07 02:44:01;;;;;;;;;;;3.80;66.70;;;;;;4098342;28;19918;-82
2023/04/07 02:46:01;;;;;;;;;;;3.80;66.70;;;;;;4081489;29;20389;-83
2023/04/07 02:48:02;;;;;;;;;;;3.80;66.90;;;;;;4085101;29;19914;-82
2023/04/07 02:50:03;;;;;;;;;;;3.80;67.20;;;;;;4081498;29;22109;-83
2023/04/07 02:52:04;;;;;;;;;;;3.80;68.20;;;;;;4081077;29;20457;-83
2023/04/07 02:54:05;;;;;;;;;;;3.80;68.00;;;;;;4094723;28;19918;-82
2023/04/07 02:56:05;;;;;;;;;;;3.80;67.70;;;;;;4063006;29;20361;-83
2023/04/07 02:58:06;;;;;;;;;;;3.90;68.10;;;;;;4077161;29;19917;-81
2023/04/07 03:00:07;;;;;;;;;;;3.80;67.80;;;;;;4079532;29;19914;-82
2023/04/07 03:02:09;;;;;;;;;;;3.80;67.80;;;;;;4065873;29;19946;-82
2023/04/07 03:04:11;;;;;;;;;;;3.80;67.90;;;;;;4097998;28;19925;-81
2023/04/07 03:06:32;;;;;;;;;;;3.80;67.90;;;;;;4097161;28;19911;-82
2023/04/07 03:08:33;;;;;;;;;;;3.80;68.10;;;;;;4077706;29;19918;-82
2023/04/07 03:10:53;;;;;;;;;;;3.80;67.90;;;;;;4083314;29;19915;-82
2023/04/07 03:13:17;;;;;;;;;;;3.80;67.80;;;;;;4082559;28;19925;-83
2023/04/07 03:15:18;;;;;;;;;;;3.80;68.40;;;;;;4065095;29;19923;-82
2023/04/07 03:17:38;;;;;;;;;;;3.80;68.10;;;;;;4096759;28;19930;-83
2023/04/07 03:19:59;;;;;;;;;;;3.80;68.00;;;;;;4098416;28;19918;-83
2023/04/07 03:22:20;;;;;;;;;;;3.80;68.50;;;;;;4100835;28;19918;-82
2023/04/07 03:24:40;;;;;;;;;;;3.80;68.10;;;;;;4098160;28;19977;-82
2023/04/07 03:27:01;;;;;;;;;;;3.80;68.10;;;;;;4084133;29;19938;-83
2023/04/07 03:29:21;;;;;;;;;;;3.90;68.00;;;;;;4099652;28;19921;-84
2023/04/07 03:31:42;;;;;;;;;;;3.80;68.00;;;;;;4083319;29;19911;-83
2023/04/07 03:34:03;;;;;;;;;;;3.80;68.10;;;;;;4088980;28;20023;-82
2023/04/07 03:36:23;;;;;;;;;;;3.80;68.60;;;;;;4083012;29;19910;-83
2023/04/07 03:38:41;;;;;;;;;;;3.80;68.30;;;;;;4097328;28;19946;-83
2023/04/07 03:41:01;;;;;;;;;;;3.80;68.20;;;;;;4102204;28;19922;-83
2023/04/07 03:43:22;;;;;;;;;;;3.80;68.30;;;;;;4085113;28;19966;-83
2023/04/07 03:45:42;;;;;;;;;;;3.80;68.50;;;;;;4102051;28;19921;-83
2023/04/07 03:48:03;;;;;;;;;;;3.90;68.70;;;;;;4099437;28;19969;-83
2023/04/07 03:50:23;;;;;;;;;;;3.80;68.60;;;;;;4104237;28;19914;-82
2023/04/07 03:52:44;;;;;;;;;;;3.80;68.50;;;;;;4089212;28;19963;-83
2023/04/07 03:55:05;;;;;;;;;;;3.80;68.80;;;;;;4101190;28;19914;-83
2023/04/07 03:57:26;;;;;;;;;;;3.80;69.20;;;;;;4099497;28;19914;-82
2023/04/07 03:59:49;;;;;;;;;;;3.80;69.40;;;;;;4087176;28;19918;-82
2023/04/07 04:02:10;;;;;;;;;;;3.80;69.50;;;;;;4086365;29;19930;-83
2023/04/07 04:04:30;;;;;;;;;;;3.80;70.40;;;;;;4098693;28;19921;-82
2023/04/07 04:06:31;;;;;;;;;;;3.80;69.80;;;;;;4085933;29;19919;-83
2023/04/07 04:08:32;;;;;;;;;;;3.70;69.90;;;;;;4086757;29;20289;-81
2023/04/07 04:10:32;;;;;;;;;;;3.80;69.70;;;;;;4082152;29;19921;-82
2023/04/07 04:12:33;;;;;;;;;;;3.80;69.90;;;;;;4106932;28;20292;-82
2023/04/07 04:14:33;;;;;;;;;;;3.80;69.90;;;;;;4096491;28;19953;-82
2023/04/07 04:16:34;;;;;;;;;;;3.80;69.60;;;;;;4082617;29;19949;-83
2023/04/07 04:18:35;;;;;;;;;;;3.70;70.50;;;;;;4061816;29;20411;-83
2023/04/07 04:20:36;;;;;;;;;;;3.70;70.50;;;;;;4096883;28;19922;-83
2023/04/07 04:22:56;;;;;;;;;;;3.70;70.80;;;;;;4083627;28;20062;-83
2023/04/07 04:25:17;;;;;;;;;;;3.70;70.70;;;;;;4098391;28;19973;-83
2023/04/07 04:27:38;;;;;;;;;;;3.70;71.00;;;;;;4097190;28;19914;-83
2023/04/07 04:29:58;;;;;;;;;;;3.70;70.70;;;;;;4099549;28;19910;-83
2023/04/07 04:32:20;;;;;;;;;;;3.70;70.90;;;;;;4098421;28;19930;-83
2023/04/07 04:34:41;;;;;;;;;;;3.80;70.60;;;;;;4083197;29;19915;-83
2023/04/07 04:37:01;;;;;;;;;;;3.70;70.60;;;;;;4087947;28;19915;-83
2023/04/07 04:39:22;;;;;;;;;;;3.70;70.80;;;;;;4079027;28;19914;-82
2023/04/07 04:41:22;;;;;;;;;;;3.70;71.30;;;;;;4071142;29;19920;-83
2023/04/07 04:43:23;;;;;;;;;;;3.70;71.10;;;;;;4080980;29;19915;-83
2023/04/07 04:45:43;;;;;;;;;;;3.70;71.40;;;;;;4098656;28;19965;-83
2023/04/07 04:48:05;;;;;;;;;;;3.70;71.30;;;;;;4096625;28;19914;-82
2023/04/07 04:50:25;;;;;;;;;;;3.70;71.30;;;;;;4096397;28;20004;-83
2023/04/07 04:52:46;;;;;;;;;;;3.70;71.40;;;;;;4100477;28;19918;-83
2023/04/07 04:55:07;;;;;;;;;;;3.70;71.40;;;;;;4100449;28;19922;-83
2023/04/07 04:57:27;;;;;;;;;;;3.70;71.50;;;;;;4097644;28;19918;-83
2023/04/07 04:59:48;;;;;;;;;;;3.70;71.50;;;;;;4099760;28;19911;-83
2023/04/07 05:02:08;;;;;;;;;;;3.70;72.10;;;;;;4103406;28;19914;-82
2023/04/07 05:04:29;;;;;;;;;;;3.70;72.10;;;;;;4097780;28;19918;-83
2023/04/07 05:06:50;;;;;;;;;;;3.70;72.60;;;;;;4089298;28;19910;-80
2023/04/07 05:09:10;;;;;;;;;;;3.60;73.00;;;;;;4102313;28;19925;-82
2023/04/07 05:11:31;;;;;;;;;;;3.70;73.00;;;;;;4102826;28;19918;-80
2023/04/07 05:13:31;;;;;;;;;;;3.70;73.50;;;;;;4083867;29;19915;-82
2023/04/07 05:15:32;;;;;;;;;;;3.70;73.70;;;;;;4100336;28;19966;-82
2023/04/07 05:17:32;;;;;;;;;;;3.70;73.50;;;;;;4083309;29;20452;-82
2023/04/07 05:19:33;;;;;;;;;;;3.80;73.40;;;;;;4084870;29;20025;-82
2023/04/07 05:21:33;;;;;;;;;;;3.80;73.60;;;;;;4070886;29;20001;-81
2023/04/07 05:23:35;;;;;;;;;;;3.80;73.70;;;;;;4096130;28;19936;-84
2023/04/07 05:25:36;;;;;;;;;;;3.80;74.20;;;;;;4077511;29;19953;-81
2023/04/07 05:27:36;;;;;;;;;;;3.80;74.20;;;;;;4075817;29;19915;-81
2023/04/07 05:29:37;;;;;;;;;;;3.80;74.20;;;;;;4065087;29;19920;-80
2023/04/07 05:31:40;;;;;;;;;;;3.90;73.70;;;;;;4081964;29;19911;-82
2023/04/07 05:33:40;;;;;;;;;;;3.90;73.70;;;;;;4078199;29;19925;-81
2023/04/07 05:35:46;;;;;;;;;;;4.00;73.90;;;;;;4081420;29;19915;-81
2023/04/07 05:37:46;;;;;;;;;;;4.00;74.60;;;;;;4100005;28;19970;-82
2023/04/07 05:39:47;;;;;;;;;;;4.00;74.60;;;;;;4080121;29;19973;-82
2023/04/07 05:42:07;;;;;;;;;;;4.00;74.50;;;;;;4098615;28;19930;-82
2023/04/07 05:44:08;;;;;;;;;;;4.10;74.60;;;;;;4099118;28;19914;-82
2023/04/07 05:46:28;;;;;;;;;;;4.10;74.30;;;;;;4103974;28;19915;-83
2023/04/07 05:48:49;;;;;;;;;;;4.10;74.60;;;;;;4096894;28;19914;-82
2023/04/07 05:51:10;;;;;;;;;;;4.20;74.50;;;;;;4094379;28;19973;-82
2023/04/07 05:53:30;;;;;;;;;;;4.20;73.90;;;;;;4092301;28;19929;-81
2023/04/07 05:55:51;;;;;;;;;;;4.40;73.80;;;;;;4083914;29;19919;-82
2023/04/07 05:58:11;;;;;;;;;;;4.30;73.90;;;;;;4091918;28;19910;-83
2023/04/07 06:00:32;;;;;;;;;;;4.30;73.70;;;;;;4096162;28;19932;-82
2023/04/07 06:02:52;;;;;;;;;;;4.30;73.60;;;;;;4084645;28;19949;-81
2023/04/07 06:05:13;;;;;;;;;;;4.20;72.70;;;;;;4100170;28;19975;-81
2023/04/07 06:07:33;;;;;;;;;;;4.30;72.80;;;;;;4102110;28;19914;-82
2023/04/07 06:09:54;;;;;;;;;;;4.40;72.50;;;;;;4099338;28;20445;-82
2023/04/07 06:12:15;;;;;;;;;;;4.50;72.40;;;;;;4096761;28;19910;-82
2023/04/07 06:14:36;;;;;;;;;;;4.60;72.20;;;;;;4085603;28;19910;-83
2023/04/07 06:16:56;;;;;;;;;;;4.60;71.80;;;;;;4086925;29;19921;-83
2023/04/07 06:19:17;;;;;;;;;;;4.70;71.60;;;;;;4085394;28;19911;-83
2023/04/07 06:21:38;;;;;;;;;;;4.80;71.30;;;;;;4086172;29;19992;-83
2023/04/07 06:23:59;;;;;;;;;;;4.80;71.20;;;;;;4098079;28;19918;-82
2023/04/07 06:26:00;;;;;;;;;;;4.90;71.00;;;;;;4099635;28;19982;-82
2023/04/07 06:28:01;;;;;;;;;;;5.00;70.90;;;;;;4072154;29;19919;-83
2023/04/07 06:30:01;;;;;;;;;;;5.00;70.50;;;;;;4084207;29;20045;-82
2023/04/07 06:32:02;;;;;;;;;;;5.10;69.70;;;;;;4087040;29;20127;-82
2023/04/07 06:34:02;;;;;;;;;;;5.10;69.40;;;;;;4096620;28;19914;-82
2023/04/07 06:36:03;;;;;;;;;;;5.20;69.30;;;;;;4082150;29;20251;-83
2023/04/07 06:38:03;;;;;;;;;;;5.20;68.70;;;;;;4097554;28;20057;-83
2023/04/07 06:40:05;;;;;;;;;;;5.30;68.60;;;;;;4078020;29;19938;-82
2023/04/07 06:42:06;;;;;;;;;;;5.30;68.60;;;;;;4100258;28;19911;-82
2023/04/07 06:44:06;;;;;;;;;;;5.30;68.30;;;;;;4087025;29;19911;-82
2023/04/07 06:46:20;;;;;;;;;;;5.40;68.30;;;;;;4102925;28;19915;-83
2023/04/07 06:48:41;;;;;;;;;;;5.40;67.80;;;;;;4086791;29;19918;-84
2023/04/07 06:51:02;;;;;;;;;;;5.50;67.40;;;;;;4092064;28;20149;-83
2023/04/07 06:53:22;;;;;;;;;;;5.50;67.00;;;;;;4086188;28;19942;-82
2023/04/07 06:55:43;;;;;;;;;;;5.60;67.30;;;;;;4080777;28;19919;-83
2023/04/07 06:58:03;;;;;;;;;;;5.60;66.20;;;;;;4098290;28;19969;-84
2023/04/07 07:00:25;;;;;;;;;;;5.50;65.30;;;;;;4095442;28;19918;-84
2023/04/07 07:02:46;;;;;;;;;;;5.60;65.10;;;;;;4094324;28;20021;-83
2023/04/07 07:05:07;;;;;;;;;;;5.70;65.00;;;;;;4090116;28;20098;-84
2023/04/07 07:07:27;;;;;;;;;;;5.70;65.00;;;;;;4097730;28;19929;-83
2023/04/07 07:09:48;;;;;;;;;;;5.90;65.30;;;;;;4096508;28;19958;-83
2023/04/07 07:11:48;;;;;;;;;;;5.90;64.90;;;;;;4080379;29;19918;-83
2023/04/07 07:13:49;;;;;;;;;;;5.80;64.40;;;;;;4087230;29;19898;-83
2023/04/07 07:15:50;;;;;;;;;;;5.70;64.50;;;;;;4088078;28;19914;-82
2023/04/07 07:17:51;;;;;;;;;;;5.90;64.80;;;;;;4097521;28;19925;-81
2023/04/07 07:19:51;;;;;;;;;;;5.90;64.70;;;;;;4097521;28;20372;-83
2023/04/07 07:21:52;;;;;;;;;;;6.00;64.70;;;;;;4080795;29;20057;-84
2023/04/07 07:24:00;;;;;;;;;;;5.90;62.10;;;;;;4095715;28;19914;-82
2023/04/07 07:26:21;;;;;;;;;;;6.10;62.90;;;;;;4082071;28;20006;-85
2023/04/07 07:28:42;;;;;;;;;;;6.10;62.50;;;;;;4102049;28;19914;-85
2023/04/07 07:31:12;;;;;;;;;;;6.20;61.80;;;;;;4102918;28;19914;-82
2023/04/07 07:33:32;;;;;;;;;;;6.20;62.20;;;;;;4101981;28;19943;-85
2023/04/07 07:35:56;;;;;;;;;;;6.30;62.70;;;;;;4086615;28;19942;-83
2023/04/07 07:38:16;;;;;;;;;;;6.30;62.20;;;;;;4093174;28;19921;-83
2023/04/07 07:40:37;;;;;;;;;;;6.40;62.30;;;;;;4096260;28;19922;-85
2023/04/07 07:42:59;;;;;;;;;;;6.30;62.30;;;;;;4093549;28;19918;-85
2023/04/07 07:45:19;;;;;;;;;;;6.30;61.80;;;;;;4090373;28;19919;-84
2023/04/07 07:47:21;;;;;;;;;;;6.40;61.80;;;;;;4079717;29;19914;-84
2023/04/07 07:49:31;;;;;;;;;;;6.40;61.70;;;;;;4094055;28;19986;-84
2023/04/07 07:51:32;;;;;;;;;;;6.30;60.80;;;;;;4091628;28;19923;-83
2023/04/07 07:53:32;;;;;;;;;;;6.20;60.00;;;;;;4092571;28;19950;-83
2023/04/07 07:55:35;;;;;;;;;;;6.30;60.40;;;;;;4073812;29;19922;-84
2023/04/07 07:57:55;;;;;;;;;;;6.30;60.70;;;;;;4092893;28;19911;-85
2023/04/07 08:00:16;;;;;;;;;;;6.50;61.10;;;;;;4096267;28;19969;-85
2023/04/07 08:02:37;;;;;;;;;;;6.50;60.50;;;;;;4091639;28;20525;-83
2023/04/07 08:04:38;;;;;;;;;;;6.30;59.00;;;;;;4098043;28;19932;-83
2023/04/07 08:06:58;;;;;;;;;;;6.40;59.60;;;;;;4093891;28;19925;-84
2023/04/07 08:09:19;;;;;;;;;;;6.50;59.90;;;;;;4102113;28;20013;-84
2023/04/07 08:11:40;;;;;;;;;;;6.60;59.60;;;;;;4096323;28;19921;-84
2023/04/07 08:14:00;;;;;;;;;;;6.60;59.30;;;;;;4099109;28;19978;-84
2023/04/07 08:16:22;;;;;;;;;;;6.50;59.20;;;;;;4099345;28;19954;-84
2023/04/07 08:18:43;;;;;;;;;;;6.60;59.80;;;;;;4085474;29;19915;-83
2023/04/07 08:21:04;;;;;;;;;;;6.70;60.30;;;;;;4083734;28;19914;-84
2023/04/07 08:23:25;;;;;;;;;;;6.80;60.60;;;;;;4087471;28;19978;-83
2023/04/07 08:25:46;;;;;;;;;;;6.80;61.70;;;;;;4082712;28;19915;-82
2023/04/07 08:28:07;;;;;;;;;;;6.60;63.80;;;;;;4089451;28;19918;-83
2023/04/07 08:30:07;;;;;;;;;;;6.60;65.90;;;;;;4081640;29;19921;-84
2023/04/07 08:32:08;;;;;;;;;;;6.50;65.90;;;;;;4081211;29;19958;-84
2023/04/07 08:34:08;;;;;;;;;;;6.70;65.80;;;;;;4093971;28;19948;-82
2023/04/07 08:36:10;;;;;;;;;;;6.70;66.70;;;;;;4081719;29;20232;-82
2023/04/07 08:38:11;;;;;;;;;;;6.60;67.20;;;;;;4056903;29;19972;-83
2023/04/07 08:40:22;;;;;;;;;;;6.80;67.70;;;;;;4077954;29;19918;-83
2023/04/07 08:42:45;;;;;;;;;;;6.80;68.30;;;;;;4081014;29;19910;-84
2023/04/07 08:45:06;;;;;;;;;;;6.90;67.90;;;;;;4093720;28;19914;-82
2023/04/07 08:47:28;;;;;;;;;;;7.00;67.50;;;;;;4090658;28;19910;-83
2023/04/07 08:49:50;;;;;;;;;;;6.90;66.70;;;;;;4077850;29;19911;-84
2023/04/07 08:52:16;;;;;;;;;;;6.90;66.60;;;;;;4094834;28;19978;-83
2023/04/07 08:54:37;;;;;;;;;;;6.80;66.20;;;;;;4096351;28;19910;-83
2023/04/07 08:56:57;;;;;;;;;;;6.80;66.10;;;;;;4099652;28;19918;-83
2023/04/07 08:59:20;;;;;;;;;;;6.90;67.00;;;;;;4080557;28;19936;-83
2023/04/07 09:01:21;;;;;;;;;;;7.00;66.10;;;;;;4076853;29;20009;-82
2023/04/07 09:03:23;;;;;;;;;;;7.10;65.70;;;;;;4080285;29;19926;-82
2023/04/07 09:05:28;;;;;;;;;;;7.20;65.40;;;;;;4084038;29;19934;-83
2023/04/07 09:07:48;;;;;;;;;;;7.10;65.00;;;;;;4078424;29;19966;-84
2023/04/07 09:10:09;;;;;;;;;;;7.10;65.90;;;;;;4073746;29;19914;-83
2023/04/07 09:12:30;;;;;;;;;;;7.10;64.60;;;;;;4090358;28;19914;-82
2023/04/07 09:14:51;;;;;;;;;;;7.20;64.70;;;;;;4074286;29;19966;-82
2023/04/07 09:17:12;;;;;;;;;;;7.30;64.80;;;;;;4073437;29;19982;-83
2023/04/07 09:19:33;;;;;;;;;;;7.40;64.50;;;;;;4078003;29;19914;-83
2023/04/07 09:21:53;;;;;;;;;;;7.30;63.20;;;;;;4074344;29;19914;-84
2023/04/07 09:24:27;;;;;;;;;;;7.20;62.30;;;;;;4081997;29;19915;-86
2023/04/07 09:26:28;;;;;;;;;;;7.30;62.40;;;;;;4079329;29;19914;-84
2023/04/07 09:28:41;;;;;;;;;;;7.10;61.90;;;;;;4080228;29;19961;-83
2023/04/07 09:31:05;;;;;;;;;;;7.30;62.10;;;;;;4083031;29;19914;-84
2023/04/07 09:33:26;;;;;;;;;;;7.20;63.00;;;;;;4081939;29;19965;-83
2023/04/07 09:35:52;;;;;;;;;;;7.20;62.70;;;;;;4091417;28;19915;-83
2023/04/07 09:38:13;;;;;;;;;;;7.30;64.20;;;;;;4082920;29;19919;-84
2023/04/07 09:40:36;;;;;;;;;;;7.30;64.10;;;;;;4080566;28;20417;-84
2023/04/07 09:42:53;;;;;;;;;;;7.30;64.50;;;;;;4067581;29;19962;-82
2023/04/07 09:45:28;;;;;;;;;;;7.30;64.40;;;;;;4082268;28;19911;-84
2023/04/07 09:47:48;;;;;;;;;;;7.30;63.80;;;;;;4083076;29;19918;-82
2023/04/07 09:50:09;;;;;;;;;;;7.30;64.40;;;;;;4094936;28;19934;-84
2023/04/07 09:52:50;;;;;;;;;;;7.10;63.50;;;;;;4076043;29;19929;-83
2023/04/07 09:58:17;;;;;;;;;;;7.00;62.20;;;;;;4062292;29;19921;-83
2023/04/07 10:00:37;;;;;;;;;;;7.10;61.40;;;;;;4095134;28;19914;-83
2023/04/07 10:02:59;;;;;;;;;;;6.90;60.80;;;;;;4083874;29;20034;-84
2023/04/07 10:05:20;;;;;;;;;;;6.90;61.50;;;;;;4084698;29;19922;-82
2023/04/07 10:07:41;;;;;;;;;;;6.90;62.00;;;;;;4083308;29;19977;-83
2023/04/07 10:10:03;;;;;;;;;;;6.90;62.80;;;;;;4080627;29;19915;-83
2023/04/07 10:12:23;;;;;;;;;;;6.90;62.40;;;;;;4079848;29;19918;-83
2023/04/07 10:14:45;;;;;;;;;;;6.90;62.50;;;;;;4080604;29;20270;-84
2023/04/07 10:16:46;;;;;;;;;;;6.90;62.60;;;;;;4084566;29;19911;-85
2023/04/07 10:18:47;;;;;;;;;;;6.90;62.60;;;;;;4079644;29;19943;-83
2023/04/07 10:20:48;;;;;;;;;;;6.90;62.00;;;;;;4085709;29;19922;-83
2023/04/07 10:22:50;;;;;;;;;;;7.00;62.50;;;;;;4081441;29;19934;-84
2023/04/07 10:24:59;;;;;;;;;;;6.90;62.00;;;;;;4085234;29;19918;-84
2023/04/07 10:27:02;;;;;;;;;;;6.90;61.80;;;;;;4101189;28;19910;-83
2023/04/07 10:29:08;;;;;;;;;;;6.80;62.00;;;;;;4083913;29;19938;-84
2023/04/07 10:31:09;;;;;;;;;;;6.80;62.50;;;;;;4064189;29;19922;-83
2023/04/07 10:33:10;;;;;;;;;;;6.90;63.70;;;;;;4082182;29;19979;-84
2023/04/07 10:35:10;;;;;;;;;;;6.90;64.70;;;;;;4079449;29;19914;-82
2023/04/07 10:37:19;;;;;;;;;;;6.90;64.80;;;;;;4079933;29;19986;-83
2023/04/07 10:39:40;;;;;;;;;;;6.90;65.00;;;;;;4088226;29;19911;-83
2023/04/07 10:42:01;;;;;;;;;;;6.90;65.00;;;;;;4081565;29;19923;-84
2023/04/07 10:44:37;;;;;;;;;;;7.00;64.60;;;;;;4083919;29;19914;-83
2023/04/07 10:47:01;;;;;;;;;;;7.00;64.10;;;;;;4100762;28;19925;-82
2023/04/07 10:49:22;;;;;;;;;;;7.00;64.10;;;;;;4087533;29;19950;-83
2023/04/07 10:52:05;;;;;;;;;;;6.90;64.80;;;;;;4082317;29;19953;-83
2023/04/07 10:54:26;;;;;;;;;;;6.80;64.50;;;;;;4078824;29;19918;-82
2023/04/07 10:57:02;;;;;;;;;;;7.00;65.00;;;;;;4085978;29;20529;-82
2023/04/07 10:59:15;;;;;;;;;;;6.90;64.50;;;;;;4091425;28;21278;-84
2023/04/07 11:01:17;;;;;;;;;;;6.80;64.50;;;;;;4095499;28;19926;-85
2023/04/07 11:03:17;;;;;;;;;;;6.80;64.70;;;;;;4093811;28;19923;-84
2023/04/07 11:05:19;;;;;;;;;;;6.80;65.10;;;;;;4074181;29;20006;-82
2023/04/07 11:07:48;;;;;;;;;;;6.80;65.90;;;;;;4075656;29;20452;-84
2023/04/07 11:10:10;;;;;;;;;;;6.70;66.20;;;;;;4076913;29;19911;-84
2023/04/07 11:12:33;;;;;;;;;;;6.70;66.60;;;;;;4076367;29;19918;-83
2023/04/07 11:14:55;;;;;;;;;;;6.40;66.60;;;;;;4078251;29;19982;-81
2023/04/07 11:17:16;;;;;;;;;;;6.40;68.00;;;;;;4066892;29;19940;-84
2023/04/07 11:19:49;;;;;;;;;;;6.50;68.50;;;;;;4084556;28;19926;-81
2023/04/07 11:22:13;;;;;;;;;;;6.60;67.70;;;;;;4080059;29;20005;-83
2023/04/07 11:24:36;;;;;;;;;;;6.70;65.30;;;;;;4076211;29;19914;-82
2023/04/07 11:26:57;;;;;;;;;;;6.70;65.60;;;;;;4075218;29;19978;-83
2023/04/07 11:29:26;;;;;;;;;;;6.80;63.40;;;;;;4072124;29;20009;-83
2023/04/07 11:31:47;;;;;;;;;;;6.80;61.40;;;;;;4077519;29;19918;-83
2023/04/07 11:34:07;;;;;;;;;;;6.90;59.70;;;;;;4065431;29;19966;-84
2023/04/07 11:36:08;;;;;;;;;;;6.90;58.90;;;;;;4075698;29;19919;-83
2023/04/07 11:38:09;;;;;;;;;;;6.70;56.10;;;;;;4090747;28;19974;-84
2023/04/07 11:40:11;;;;;;;;;;;6.70;57.50;;;;;;4078160;29;19914;-82
2023/04/07 11:42:36;;;;;;;;;;;6.80;57.10;;;;;;4095165;28;19917;-83
2023/04/07 11:44:57;;;;;;;;;;;6.70;55.30;;;;;;4078865;29;19915;-83
2023/04/07 11:47:14;;;;;;;;;;;6.60;54.10;;;;;;4078045;29;20642;-82
2023/04/07 11:49:42;;;;;;;;;;;6.60;53.60;;;;;;4076391;29;20019;-80
2023/04/07 11:52:07;;;;;;;;;;;6.50;53.70;;;;;;4073810;29;19914;-82
2023/04/07 11:58:18;;;;;;;;;;;6.50;53.30;;;;;;4060179;29;20185;-84
2023/04/07 12:00:52;;;;;;;;;;;6.50;56.20;;;;;;4071257;28;19919;-83
2023/04/07 12:03:14;;;;;;;;;;;6.70;58.40;;;;;;4074305;29;19922;-84
2023/04/07 12:05:44;;;;;;;;;;;6.70;55.20;;;;;;4081033;29;19954;-83
2023/04/07 12:08:05;;;;;;;;;;;6.70;54.60;;;;;;4092218;28;19911;-83
2023/04/07 12:10:18;;;;;;;;;;;6.60;51.00;;;;;;4078577;29;20845;-84
2023/04/07 12:12:31;;;;;;;;;;;6.50;54.80;;;;;;4083244;29;20017;-83
2023/04/07 12:14:52;;;;;;;;;;;6.60;55.80;;;;;;4076986;29;19919;-84
2023/04/07 12:17:19;;;;;;;;;;;6.60;56.50;;;;;;4079427;29;19926;-83
2023/04/07 12:19:21;;;;;;;;;;;6.70;57.70;;;;;;4083603;29;19919;-81
2023/04/07 12:21:42;;;;;;;;;;;6.70;57.20;;;;;;4082539;29;19942;-83
2023/04/07 12:24:05;;;;;;;;;;;6.80;58.20;;;;;;4076691;29;19971;-83
2023/04/07 12:26:26;;;;;;;;;;;6.70;58.00;;;;;;4081057;29;19917;-83
2023/04/07 12:28:47;;;;;;;;;;;6.80;58.20;;;;;;4076218;29;20741;-83
2023/04/07 12:31:07;;;;;;;;;;;6.80;57.80;;;;;;4083558;29;19958;-83
2023/04/07 12:33:28;;;;;;;;;;;6.90;58.00;;;;;;4082020;29;19910;-85
2023/04/07 12:35:49;;;;;;;;;;;6.90;57.80;;;;;;4079114;29;19906;-84
2023/04/07 12:38:09;;;;;;;;;;;6.80;59.30;;;;;;4081444;29;19914;-82
2023/04/07 12:40:31;;;;;;;;;;;6.70;57.80;;;;;;4075460;29;19918;-82
2023/04/07 12:42:51;;;;;;;;;;;6.70;58.00;;;;;;4076029;29;19986;-84
2023/04/07 12:45:20;;;;;;;;;;;6.70;59.60;;;;;;4089261;28;19960;-82
2023/04/07 12:47:48;;;;;;;;;;;6.60;57.80;;;;;;4076041;29;19986;-83
2023/04/07 12:50:10;;;;;;;;;;;6.50;58.80;;;;;;4075726;29;19925;-83
2023/04/07 12:52:31;;;;;;;;;;;6.60;59.10;;;;;;4083957;28;20002;-84
2023/04/07 12:54:52;;;;;;;;;;;6.60;57.70;;;;;;4076305;29;19957;-84
2023/04/07 12:57:12;;;;;;;;;;;6.40;57.30;;;;;;4067622;29;20419;-83
2023/04/07 12:59:33;;;;;;;;;;;6.50;57.60;;;;;;4070826;29;20011;-83
2023/04/07 13:01:54;;;;;;;;;;;6.10;55.40;;;;;;4074649;29;19919;-82
2023/04/07 13:03:55;;;;;;;;;;;6.20;55.80;;;;;;4066764;29;19994;-83
2023/04/07 13:06:00;;;;;;;;;;;6.20;54.40;;;;;;4077997;29;19926;-84
2023/04/07 13:08:00;;;;;;;;;;;6.10;55.50;;;;;;4073647;29;19919;-82
2023/04/07 13:10:01;;;;;;;;;;;6.30;55.10;;;;;;4078207;29;20169;-83
2023/04/07 13:12:02;;;;;;;;;;;6.40;55.40;;;;;;4073775;29;20029;-84
2023/04/07 13:14:06;;;;;;;;;;;6.50;54.30;;;;;;4081090;28;20393;-84
2023/04/07 13:16:07;;;;;;;;;;;6.50;52.60;;;;;;4096009;28;19915;-84
2023/04/07 13:18:07;;;;;;;;;;;6.50;52.30;;;;;;4048245;29;19982;-82